sensor_id;sensor_type;location;lat;lon;timestamp;P1;durP1;ratioP1;P2;durP2;ratioP2
66169;SDS011;52971;44.024;20.456;2022-08-11T00:01:22;4.05;;;1.45;;
66169;SDS011;52971;44.024;20.456;2022-08-11T00:04:02;2.95;;;1.13;;
66169;SDS011;52971;44.024;20.456;2022-08-11T00:08:57;2.95;;;1.00;;
66169;SDS011;52971;44.024;20.456;2022-08-11T00:13:59;4.82;;;1.27;;
66169;SDS011;52971;44.024;20.456;2022-08-11T00:16:26;4.88;;;1.40;;
66169;SDS011;52971;44.024;20.456;2022-08-11T00:18:53;2.20;;;1.27;;
66169;SDS011;52971;44.024;20.456;2022-08-11T00:21:20;5.20;;;1.15;;
66169;SDS011;52971;44.024;20.456;2022-08-11T00:23:54;5.70;;;0.90;;
66169;SDS011;52971;44.024;20.456;2022-08-11T00:26:25;2.25;;;1.20;;
66169;SDS011;52971;44.024;20.456;2022-08-11T00:28:52;2.47;;;1.42;;
66169;SDS011;52971;44.024;20.456;2022-08-11T00:31:28;2.13;;;1.08;;
66169;SDS011;52971;44.024;20.456;2022-08-11T00:33:56;2.47;;;1.20;;
66169;SDS011;52971;44.024;20.456;2022-08-11T00:36:27;4.20;;;1.27;;
66169;SDS011;52971;44.024;20.456;2022-08-11T00:39:07;4.47;;;1.50;;
66169;SDS011;52971;44.024;20.456;2022-08-11T00:52:32;2.70;;;1.23;;
66169;SDS011;52971;44.024;20.456;2022-08-11T01:01:09;2.70;;;1.27;;
66169;SDS011;52971;44.024;20.456;2022-08-11T01:12:13;2.33;;;1.08;;
66169;SDS011;52971;44.024;20.456;2022-08-11T01:36:41;2.17;;;1.70;;
66169;SDS011;52971;44.024;20.456;2022-08-11T01:57:25;1.92;;;1.13;;
66169;SDS011;52971;44.024;20.456;2022-08-11T02:00:13;2.70;;;1.08;;
66169;SDS011;52971;44.024;20.456;2022-08-11T02:02:48;4.47;;;1.13;;
66169;SDS011;52971;44.024;20.456;2022-08-11T02:08:23;3.95;;;1.83;;
66169;SDS011;52971;44.024;20.456;2022-08-11T02:22:07;3.47;;;1.35;;
66169;SDS011;52971;44.024;20.456;2022-08-11T02:27:44;7.63;;;2.13;;
66169;SDS011;52971;44.024;20.456;2022-08-11T02:30:15;4.15;;;1.52;;
66169;SDS011;52971;44.024;20.456;2022-08-11T02:32:51;1.95;;;1.00;;
66169;SDS011;52971;44.024;20.456;2022-08-11T02:35:44;3.80;;;1.30;;
66169;SDS011;52971;44.024;20.456;2022-08-11T02:50:20;1.20;;;1.00;;
66169;SDS011;52971;44.024;20.456;2022-08-11T02:55:47;7.72;;;1.50;;
66169;SDS011;52971;44.024;20.456;2022-08-11T02:59:24;3.22;;;1.05;;
66169;SDS011;52971;44.024;20.456;2022-08-11T03:01:44;1.90;;;1.38;;
66169;SDS011;52971;44.024;20.456;2022-08-11T03:04:44;1.95;;;1.20;;
66169;SDS011;52971;44.024;20.456;2022-08-11T03:10:21;3.85;;;1.67;;
66169;SDS011;52971;44.024;20.456;2022-08-11T03:13:09;2.75;;;1.63;;
66169;SDS011;52971;44.024;20.456;2022-08-11T03:19:42;2.47;;;2.25;;
66169;SDS011;52971;44.024;20.456;2022-08-11T03:21:57;3.13;;;2.28;;
66169;SDS011;52971;44.024;20.456;2022-08-11T03:24:38;3.45;;;1.85;;
66169;SDS011;52971;44.024;20.456;2022-08-11T03:32:27;2.53;;;2.17;;
66169;SDS011;52971;44.024;20.456;2022-08-11T03:34:56;3.28;;;1.25;;
66169;SDS011;52971;44.024;20.456;2022-08-11T03:37:29;2.65;;;1.45;;
66169;SDS011;52971;44.024;20.456;2022-08-11T03:43:25;4.18;;;1.55;;
66169;SDS011;52971;44.024;20.456;2022-08-11T03:46:09;2.10;;;1.30;;
66169;SDS011;52971;44.024;20.456;2022-08-11T03:48:47;4.25;;;1.48;;
66169;SDS011;52971;44.024;20.456;2022-08-11T03:52:04;4.22;;;1.63;;
66169;SDS011;52971;44.024;20.456;2022-08-11T04:26:00;2.65;;;2.45;;
66169;SDS011;52971;44.024;20.456;2022-08-11T04:37:07;6.28;;;2.97;;
66169;SDS011;52971;44.024;20.456;2022-08-11T04:52:00;7.50;;;4.05;;
66169;SDS011;52971;44.024;20.456;2022-08-11T05:12:59;4.85;;;2.55;;
66169;SDS011;52971;44.024;20.456;2022-08-11T05:15:56;8.93;;;2.72;;
66169;SDS011;52971;44.024;20.456;2022-08-11T05:18:46;9.10;;;3.00;;
66169;SDS011;52971;44.024;20.456;2022-08-11T05:21:33;17.58;;;2.92;;
66169;SDS011;52971;44.024;20.456;2022-08-11T05:24:21;7.40;;;1.98;;
66169;SDS011;52971;44.024;20.456;2022-08-11T05:27:09;7.30;;;2.05;;
66169;SDS011;52971;44.024;20.456;2022-08-11T05:32:44;2.92;;;2.00;;
66169;SDS011;52971;44.024;20.456;2022-08-11T05:35:31;4.95;;;2.10;;
66169;SDS011;52971;44.024;20.456;2022-08-11T05:38:08;4.65;;;1.88;;
66169;SDS011;52971;44.024;20.456;2022-08-11T05:40:56;4.75;;;2.42;;
66169;SDS011;52971;44.024;20.456;2022-08-11T05:46:28;4.60;;;1.60;;
66169;SDS011;52971;44.024;20.456;2022-08-11T05:49:13;6.53;;;1.75;;
66169;SDS011;52971;44.024;20.456;2022-08-11T05:51:58;4.95;;;2.13;;
66169;SDS011;52971;44.024;20.456;2022-08-11T05:57:31;3.72;;;1.58;;
66169;SDS011;52971;44.024;20.456;2022-08-11T06:00:04;2.38;;;1.10;;
66169;SDS011;52971;44.024;20.456;2022-08-11T06:02:42;1.75;;;1.10;;
66169;SDS011;52971;44.024;20.456;2022-08-11T06:05:10;2.10;;;1.17;;
66169;SDS011;52971;44.024;20.456;2022-08-11T06:07:36;6.00;;;1.15;;
66169;SDS011;52971;44.024;20.456;2022-08-11T06:10:02;2.28;;;0.80;;
66169;SDS011;52971;44.024;20.456;2022-08-11T06:12:29;2.47;;;1.13;;
66169;SDS011;52971;44.024;20.456;2022-08-11T06:15:00;4.13;;;1.20;;
66169;SDS011;52971;44.024;20.456;2022-08-11T06:17:29;2.15;;;1.17;;
66169;SDS011;52971;44.024;20.456;2022-08-11T06:19:59;4.07;;;1.17;;
66169;SDS011;52971;44.024;20.456;2022-08-11T06:22:29;2.45;;;1.13;;
66169;SDS011;52971;44.024;20.456;2022-08-11T06:24:56;5.70;;;1.20;;
66169;SDS011;52971;44.024;20.456;2022-08-11T06:27:25;4.30;;;1.33;;
66169;SDS011;52971;44.024;20.456;2022-08-11T06:29:53;1.58;;;0.85;;
66169;SDS011;52971;44.024;20.456;2022-08-11T06:32:24;2.47;;;1.02;;
66169;SDS011;52971;44.024;20.456;2022-08-11T06:37:33;2.90;;;0.90;;
66169;SDS011;52971;44.024;20.456;2022-08-11T06:40:11;2.33;;;1.00;;
66169;SDS011;52971;44.024;20.456;2022-08-11T06:48:15;4.43;;;1.40;;
66169;SDS011;52971;44.024;20.456;2022-08-11T06:50:47;2.63;;;1.20;;
66169;SDS011;52971;44.024;20.456;2022-08-11T06:53:33;3.28;;;0.70;;
66169;SDS011;52971;44.024;20.456;2022-08-11T06:56:02;3.28;;;0.80;;
66169;SDS011;52971;44.024;20.456;2022-08-11T06:58:47;5.35;;;1.20;;
66169;SDS011;52971;44.024;20.456;2022-08-11T07:04:26;2.63;;;0.93;;
66169;SDS011;52971;44.024;20.456;2022-08-11T07:12:58;5.15;;;0.82;;
66169;SDS011;52971;44.024;20.456;2022-08-11T07:15:44;1.40;;;0.50;;
66169;SDS011;52971;44.024;20.456;2022-08-11T07:18:33;1.75;;;0.80;;
66169;SDS011;52971;44.024;20.456;2022-08-11T07:21:20;1.17;;;0.60;;
66169;SDS011;52971;44.024;20.456;2022-08-11T07:24:16;3.53;;;0.70;;
66169;SDS011;52971;44.024;20.456;2022-08-11T07:27:10;1.58;;;0.60;;
66169;SDS011;52971;44.024;20.456;2022-08-11T07:30:00;1.83;;;0.40;;
66169;SDS011;52971;44.024;20.456;2022-08-11T07:32:34;2.25;;;0.60;;
66169;SDS011;52971;44.024;20.456;2022-08-11T07:35:23;1.88;;;0.60;;
66169;SDS011;52971;44.024;20.456;2022-08-11T07:38:00;5.45;;;0.95;;
66169;SDS011;52971;44.024;20.456;2022-08-11T07:40:28;2.67;;;0.70;;
66169;SDS011;52971;44.024;20.456;2022-08-11T07:42:54;0.93;;;0.68;;
66169;SDS011;52971;44.024;20.456;2022-08-11T07:45:21;1.42;;;0.80;;
66169;SDS011;52971;44.024;20.456;2022-08-11T07:48:07;2.03;;;0.50;;
66169;SDS011;52971;44.024;20.456;2022-08-11T07:50:53;2.45;;;0.63;;
66169;SDS011;52971;44.024;20.456;2022-08-11T07:53:38;4.55;;;0.65;;
66169;SDS011;52971;44.024;20.456;2022-08-11T07:56:04;1.50;;;0.50;;
66169;SDS011;52971;44.024;20.456;2022-08-11T07:58:30;2.50;;;0.68;;
66169;SDS011;52971;44.024;20.456;2022-08-11T08:01:22;1.60;;;0.70;;
66169;SDS011;52971;44.024;20.456;2022-08-11T08:04:08;5.30;;;0.93;;
66169;SDS011;52971;44.024;20.456;2022-08-11T08:06:56;4.05;;;0.90;;
66169;SDS011;52971;44.024;20.456;2022-08-11T08:09:42;4.65;;;1.35;;
66169;SDS011;52971;44.024;20.456;2022-08-11T08:12:27;2.65;;;0.90;;
66169;SDS011;52971;44.024;20.456;2022-08-11T08:15:13;1.67;;;0.80;;
66169;SDS011;52971;44.024;20.456;2022-08-11T08:17:58;3.97;;;0.85;;
66169;SDS011;52971;44.024;20.456;2022-08-11T08:20:27;3.13;;;0.82;;
66169;SDS011;52971;44.024;20.456;2022-08-11T08:22:58;2.60;;;0.60;;
66169;SDS011;52971;44.024;20.456;2022-08-11T08:25:25;1.25;;;0.77;;
66169;SDS011;52971;44.024;20.456;2022-08-11T08:27:53;2.70;;;0.50;;
66169;SDS011;52971;44.024;20.456;2022-08-11T08:30:20;0.75;;;0.50;;
66169;SDS011;52971;44.024;20.456;2022-08-11T08:33:05;1.67;;;0.50;;
66169;SDS011;52971;44.024;20.456;2022-08-11T08:35:34;3.42;;;0.70;;
66169;SDS011;52971;44.024;20.456;2022-08-11T08:38:00;6.15;;;0.50;;
66169;SDS011;52971;44.024;20.456;2022-08-11T08:40:27;1.65;;;0.50;;
66169;SDS011;52971;44.024;20.456;2022-08-11T08:42:57;0.93;;;0.40;;
66169;SDS011;52971;44.024;20.456;2022-08-11T08:45:26;0.77;;;0.40;;
66169;SDS011;52971;44.024;20.456;2022-08-11T08:50:25;0.95;;;0.50;;
66169;SDS011;52971;44.024;20.456;2022-08-11T08:53:14;0.82;;;0.40;;
66169;SDS011;52971;44.024;20.456;2022-08-11T08:55:45;1.65;;;0.30;;
66169;SDS011;52971;44.024;20.456;2022-08-11T08:58:12;1.70;;;0.45;;
66169;SDS011;52971;44.024;20.456;2022-08-11T09:00:40;2.13;;;0.50;;
66169;SDS011;52971;44.024;20.456;2022-08-11T09:03:08;2.05;;;0.60;;
66169;SDS011;52971;44.024;20.456;2022-08-11T09:05:34;0.88;;;0.35;;
66169;SDS011;52971;44.024;20.456;2022-08-11T09:08:00;2.53;;;0.50;;
66169;SDS011;52971;44.024;20.456;2022-08-11T09:10:27;1.27;;;0.30;;
66169;SDS011;52971;44.024;20.456;2022-08-11T09:12:56;1.40;;;0.70;;
66169;SDS011;52971;44.024;20.456;2022-08-11T09:15:23;0.80;;;0.40;;
66169;SDS011;52971;44.024;20.456;2022-08-11T09:17:53;0.80;;;0.40;;
66169;SDS011;52971;44.024;20.456;2022-08-11T09:20:25;1.55;;;0.30;;
66169;SDS011;52971;44.024;20.456;2022-08-11T09:22:57;1.73;;;0.40;;
66169;SDS011;52971;44.024;20.456;2022-08-11T09:25:43;3.88;;;0.30;;
66169;SDS011;52971;44.024;20.456;2022-08-11T09:30:54;0.52;;;0.30;;
66169;SDS011;52971;44.024;20.456;2022-08-11T09:33:24;0.85;;;0.40;;
66169;SDS011;52971;44.024;20.456;2022-08-11T09:35:50;9.40;;;0.45;;
66169;SDS011;52971;44.024;20.456;2022-08-11T09:38:18;1.30;;;0.40;;
66169;SDS011;52971;44.024;20.456;2022-08-11T09:41:07;6.55;;;0.73;;
66169;SDS011;52971;44.024;20.456;2022-08-11T09:43:41;3.70;;;0.20;;
66169;SDS011;52971;44.024;20.456;2022-08-11T09:46:27;1.13;;;0.40;;
66169;SDS011;52971;44.024;20.456;2022-08-11T09:48:55;1.30;;;0.40;;
66169;SDS011;52971;44.024;20.456;2022-08-11T09:51:23;1.17;;;0.38;;
66169;SDS011;52971;44.024;20.456;2022-08-11T09:53:52;2.70;;;0.57;;
66169;SDS011;52971;44.024;20.456;2022-08-11T09:56:20;1.08;;;0.20;;
66169;SDS011;52971;44.024;20.456;2022-08-11T09:59:06;1.90;;;0.40;;
66169;SDS011;52971;44.024;20.456;2022-08-11T10:01:33;3.90;;;0.30;;
66169;SDS011;52971;44.024;20.456;2022-08-11T10:07:00;1.15;;;0.30;;
66169;SDS011;52971;44.024;20.456;2022-08-11T10:09:38;0.98;;;0.28;;
66169;SDS011;52971;44.024;20.456;2022-08-11T10:12:19;2.28;;;0.30;;
66169;SDS011;52971;44.024;20.456;2022-08-11T10:14:53;1.45;;;0.60;;
66169;SDS011;52971;44.024;20.456;2022-08-11T10:17:52;6.70;;;0.32;;
66169;SDS011;52971;44.024;20.456;2022-08-11T10:20:41;1.58;;;0.43;;
66169;SDS011;52971;44.024;20.456;2022-08-11T10:23:09;2.55;;;0.60;;
66169;SDS011;52971;44.024;20.456;2022-08-11T10:25:55;0.50;;;0.30;;
66169;SDS011;52971;44.024;20.456;2022-08-11T10:28:40;0.88;;;0.40;;
66169;SDS011;52971;44.024;20.456;2022-08-11T10:31:07;1.17;;;0.30;;
66169;SDS011;52971;44.024;20.456;2022-08-11T10:33:52;1.02;;;0.40;;
66169;SDS011;52971;44.024;20.456;2022-08-11T10:36:24;0.90;;;0.25;;
66169;SDS011;52971;44.024;20.456;2022-08-11T10:38:53;0.80;;;0.30;;
66169;SDS011;52971;44.024;20.456;2022-08-11T10:41:20;0.70;;;0.20;;
66169;SDS011;52971;44.024;20.456;2022-08-11T10:44:07;1.15;;;0.30;;
66169;SDS011;52971;44.024;20.456;2022-08-11T10:46:34;0.70;;;0.20;;
66169;SDS011;52971;44.024;20.456;2022-08-11T10:49:19;0.45;;;0.20;;
66169;SDS011;52971;44.024;20.456;2022-08-11T10:51:45;1.48;;;0.30;;
66169;SDS011;52971;44.024;20.456;2022-08-11T10:54:31;0.73;;;0.20;;
66169;SDS011;52971;44.024;20.456;2022-08-11T10:57:17;1.38;;;0.30;;
66169;SDS011;52971;44.024;20.456;2022-08-11T11:00:02;1.17;;;0.40;;
66169;SDS011;52971;44.024;20.456;2022-08-11T11:02:30;1.13;;;0.40;;
66169;SDS011;52971;44.024;20.456;2022-08-11T11:05:07;2.92;;;0.30;;
66169;SDS011;52971;44.024;20.456;2022-08-11T11:08:07;2.30;;;0.30;;
66169;SDS011;52971;44.024;20.456;2022-08-11T11:10:56;0.47;;;0.20;;
66169;SDS011;52971;44.024;20.456;2022-08-11T11:13:23;1.48;;;0.30;;
66169;SDS011;52971;44.024;20.456;2022-08-11T11:16:08;1.88;;;0.30;;
66169;SDS011;52971;44.024;20.456;2022-08-11T11:18:53;1.38;;;0.20;;
66169;SDS011;52971;44.024;20.456;2022-08-11T11:21:20;1.13;;;0.38;;
66169;SDS011;52971;44.024;20.456;2022-08-11T11:37:22;1.33;;;0.20;;
66169;SDS011;52971;44.024;20.456;2022-08-11T11:39:49;2.33;;;0.40;;
66169;SDS011;52971;44.024;20.456;2022-08-11T11:42:17;0.68;;;0.30;;
66169;SDS011;52971;44.024;20.456;2022-08-11T11:44:44;2.33;;;0.30;;
66169;SDS011;52971;44.024;20.456;2022-08-11T11:47:11;1.60;;;0.30;;
66169;SDS011;52971;44.024;20.456;2022-08-11T11:49:39;0.93;;;0.30;;
66169;SDS011;52971;44.024;20.456;2022-08-11T11:52:08;1.50;;;0.30;;
66169;SDS011;52971;44.024;20.456;2022-08-11T11:54:39;2.15;;;0.40;;
66169;SDS011;52971;44.024;20.456;2022-08-11T11:57:05;4.55;;;0.68;;
66169;SDS011;52971;44.024;20.456;2022-08-11T11:59:51;1.27;;;0.50;;
66169;SDS011;52971;44.024;20.456;2022-08-11T12:02:37;0.85;;;0.30;;
66169;SDS011;52971;44.024;20.456;2022-08-11T12:05:05;1.08;;;0.30;;
66169;SDS011;52971;44.024;20.456;2022-08-11T12:07:32;0.80;;;0.20;;
66169;SDS011;52971;44.024;20.456;2022-08-11T12:10:16;4.45;;;0.55;;
66169;SDS011;52971;44.024;20.456;2022-08-11T12:12:43;1.40;;;0.20;;
66169;SDS011;52971;44.024;20.456;2022-08-11T12:15:29;1.83;;;0.30;;
66169;SDS011;52971;44.024;20.456;2022-08-11T12:17:56;1.25;;;0.40;;
66169;SDS011;52971;44.024;20.456;2022-08-11T12:20:24;1.98;;;0.28;;
66169;SDS011;52971;44.024;20.456;2022-08-11T12:22:50;1.13;;;0.40;;
66169;SDS011;52971;44.024;20.456;2022-08-11T12:25:35;0.70;;;0.30;;
66169;SDS011;52971;44.024;20.456;2022-08-11T12:28:20;1.88;;;0.30;;
66169;SDS011;52971;44.024;20.456;2022-08-11T12:30:48;3.35;;;0.30;;
66169;SDS011;52971;44.024;20.456;2022-08-11T12:33:16;2.85;;;0.40;;
66169;SDS011;52971;44.024;20.456;2022-08-11T12:35:43;1.73;;;0.35;;
66169;SDS011;52971;44.024;20.456;2022-08-11T12:38:11;1.05;;;0.32;;
66169;SDS011;52971;44.024;20.456;2022-08-11T12:40:40;1.27;;;0.30;;
66169;SDS011;52971;44.024;20.456;2022-08-11T12:43:26;0.90;;;0.50;;
66169;SDS011;52971;44.024;20.456;2022-08-11T12:46:32;1.42;;;0.40;;
66169;SDS011;52971;44.024;20.456;2022-08-11T12:49:07;1.10;;;0.40;;
66169;SDS011;52971;44.024;20.456;2022-08-11T12:51:54;2.88;;;0.40;;
66169;SDS011;52971;44.024;20.456;2022-08-11T12:54:30;1.65;;;0.40;;
66169;SDS011;52971;44.024;20.456;2022-08-11T12:57:16;2.55;;;0.40;;
66169;SDS011;52971;44.024;20.456;2022-08-11T13:00:05;1.23;;;0.40;;
66169;SDS011;52971;44.024;20.456;2022-08-11T13:02:50;0.80;;;0.30;;
66169;SDS011;52971;44.024;20.456;2022-08-11T13:05:35;0.50;;;0.30;;
66169;SDS011;52971;44.024;20.456;2022-08-11T13:08:02;1.00;;;0.50;;
66169;SDS011;52971;44.024;20.456;2022-08-11T13:10:28;0.60;;;0.30;;
66169;SDS011;52971;44.024;20.456;2022-08-11T13:13:16;2.55;;;0.40;;
66169;SDS011;52971;44.024;20.456;2022-08-11T13:15:44;1.58;;;0.30;;
66169;SDS011;52971;44.024;20.456;2022-08-11T13:18:14;2.30;;;0.40;;
66169;SDS011;52971;44.024;20.456;2022-08-11T13:20:41;1.15;;;0.38;;
66169;SDS011;52971;44.024;20.456;2022-08-11T13:23:08;1.25;;;0.20;;
66169;SDS011;52971;44.024;20.456;2022-08-11T13:25:37;1.33;;;0.30;;
66169;SDS011;52971;44.024;20.456;2022-08-11T13:28:03;0.70;;;0.20;;
66169;SDS011;52971;44.024;20.456;2022-08-11T13:30:30;0.50;;;0.20;;
66169;SDS011;52971;44.024;20.456;2022-08-11T13:33:14;0.93;;;0.30;;
66169;SDS011;52971;44.024;20.456;2022-08-11T13:35:46;0.73;;;0.30;;
66169;SDS011;52971;44.024;20.456;2022-08-11T13:38:15;0.77;;;0.20;;
66169;SDS011;52971;44.024;20.456;2022-08-11T13:40:42;2.05;;;0.30;;
66169;SDS011;52971;44.024;20.456;2022-08-11T13:43:10;2.25;;;0.30;;
66169;SDS011;52971;44.024;20.456;2022-08-11T13:45:38;1.17;;;0.40;;
66169;SDS011;52971;44.024;20.456;2022-08-11T13:48:06;3.22;;;0.40;;
66169;SDS011;52971;44.024;20.456;2022-08-11T13:50:33;2.25;;;0.30;;
66169;SDS011;52971;44.024;20.456;2022-08-11T13:53:20;1.42;;;0.30;;
66169;SDS011;52971;44.024;20.456;2022-08-11T13:55:48;1.75;;;0.40;;
66169;SDS011;52971;44.024;20.456;2022-08-11T13:58:14;3.03;;;0.50;;
66169;SDS011;52971;44.024;20.456;2022-08-11T14:00:47;0.73;;;0.40;;
66169;SDS011;52971;44.024;20.456;2022-08-11T14:03:15;2.10;;;0.50;;
66169;SDS011;52971;44.024;20.456;2022-08-11T14:05:51;2.20;;;0.40;;
66169;SDS011;52971;44.024;20.456;2022-08-11T14:08:23;1.10;;;0.30;;
66169;SDS011;52971;44.024;20.456;2022-08-11T14:10:52;4.18;;;0.88;;
66169;SDS011;52971;44.024;20.456;2022-08-11T14:13:42;2.50;;;0.40;;
66169;SDS011;52971;44.024;20.456;2022-08-11T14:16:12;2.40;;;0.40;;
66169;SDS011;52971;44.024;20.456;2022-08-11T14:18:45;2.47;;;0.70;;
66169;SDS011;52971;44.024;20.456;2022-08-11T14:21:14;2.08;;;0.57;;
66169;SDS011;52971;44.024;20.456;2022-08-11T14:24:00;2.78;;;0.40;;
66169;SDS011;52971;44.024;20.456;2022-08-11T14:26:28;2.05;;;0.60;;
66169;SDS011;52971;44.024;20.456;2022-08-11T14:31:39;3.05;;;0.55;;
66169;SDS011;52971;44.024;20.456;2022-08-11T14:34:09;1.08;;;0.40;;
66169;SDS011;52971;44.024;20.456;2022-08-11T14:36:39;0.80;;;0.50;;
66169;SDS011;52971;44.024;20.456;2022-08-11T14:39:17;0.75;;;0.40;;
66169;SDS011;52971;44.024;20.456;2022-08-11T14:41:48;0.55;;;0.43;;
66169;SDS011;52971;44.024;20.456;2022-08-11T14:44:36;3.00;;;0.50;;
66169;SDS011;52971;44.024;20.456;2022-08-11T14:47:21;1.58;;;0.60;;
66169;SDS011;52971;44.024;20.456;2022-08-11T14:49:48;6.82;;;0.85;;
66169;SDS011;52971;44.024;20.456;2022-08-11T14:52:16;3.17;;;0.70;;
66169;SDS011;52971;44.024;20.456;2022-08-11T14:54:45;2.25;;;0.52;;
66169;SDS011;52971;44.024;20.456;2022-08-11T14:57:32;1.23;;;0.40;;
66169;SDS011;52971;44.024;20.456;2022-08-11T15:00:02;4.28;;;0.60;;
66169;SDS011;52971;44.024;20.456;2022-08-11T15:02:30;2.78;;;0.52;;
66169;SDS011;52971;44.024;20.456;2022-08-11T15:05:19;2.35;;;0.80;;
66169;SDS011;52971;44.024;20.456;2022-08-11T15:07:46;2.53;;;0.57;;
66169;SDS011;52971;44.024;20.456;2022-08-11T15:10:12;1.52;;;0.30;;
66169;SDS011;52971;44.024;20.456;2022-08-11T15:12:40;2.95;;;0.63;;
66169;SDS011;52971;44.024;20.456;2022-08-11T15:15:06;1.52;;;0.40;;
66169;SDS011;52971;44.024;20.456;2022-08-11T15:17:53;1.88;;;0.40;;
66169;SDS011;52971;44.024;20.456;2022-08-11T15:20:20;2.90;;;0.47;;
66169;SDS011;52971;44.024;20.456;2022-08-11T15:23:06;1.77;;;0.40;;
66169;SDS011;52971;44.024;20.456;2022-08-11T15:29:04;1.25;;;0.40;;
66169;SDS011;52971;44.024;20.456;2022-08-11T15:31:49;2.20;;;0.93;;
66169;SDS011;52971;44.024;20.456;2022-08-11T15:34:33;2.45;;;0.60;;
66169;SDS011;52971;44.024;20.456;2022-08-11T15:37:18;1.23;;;0.50;;
66169;SDS011;52971;44.024;20.456;2022-08-11T15:39:51;1.33;;;0.43;;
66169;SDS011;52971;44.024;20.456;2022-08-11T15:42:39;1.33;;;0.30;;
66169;SDS011;52971;44.024;20.456;2022-08-11T15:45:32;0.75;;;0.40;;
66169;SDS011;52971;44.024;20.456;2022-08-11T15:48:18;1.42;;;0.35;;
66169;SDS011;52971;44.024;20.456;2022-08-11T15:50:51;1.08;;;0.40;;
66169;SDS011;52971;44.024;20.456;2022-08-11T15:53:26;0.85;;;0.40;;
66169;SDS011;52971;44.024;20.456;2022-08-11T15:55:57;1.50;;;0.52;;
66169;SDS011;52971;44.024;20.456;2022-08-11T15:58:25;1.27;;;0.43;;
66169;SDS011;52971;44.024;20.456;2022-08-11T16:01:12;1.48;;;0.40;;
66169;SDS011;52971;44.024;20.456;2022-08-11T16:03:59;1.25;;;0.40;;
66169;SDS011;52971;44.024;20.456;2022-08-11T16:09:38;1.52;;;0.40;;
66169;SDS011;52971;44.024;20.456;2022-08-11T16:12:14;1.55;;;0.30;;
66169;SDS011;52971;44.024;20.456;2022-08-11T16:14:43;0.80;;;0.40;;
66169;SDS011;52971;44.024;20.456;2022-08-11T16:17:30;3.95;;;0.52;;
66169;SDS011;52971;44.024;20.456;2022-08-11T16:19:59;1.13;;;0.40;;
66169;SDS011;52971;44.024;20.456;2022-08-11T16:22:28;1.00;;;0.40;;
66169;SDS011;52971;44.024;20.456;2022-08-11T16:25:04;3.45;;;0.35;;
66169;SDS011;52971;44.024;20.456;2022-08-11T16:27:41;1.80;;;0.50;;
66169;SDS011;52971;44.024;20.456;2022-08-11T16:30:10;1.73;;;0.40;;
66169;SDS011;52971;44.024;20.456;2022-08-11T16:32:40;3.60;;;0.40;;
66169;SDS011;52971;44.024;20.456;2022-08-11T16:35:10;2.80;;;0.50;;
66169;SDS011;52971;44.024;20.456;2022-08-11T16:37:57;1.75;;;0.60;;
66169;SDS011;52971;44.024;20.456;2022-08-11T16:40:42;2.20;;;0.50;;
66169;SDS011;52971;44.024;20.456;2022-08-11T16:43:11;1.35;;;0.45;;
66169;SDS011;52971;44.024;20.456;2022-08-11T16:45:58;1.27;;;0.40;;
66169;SDS011;52971;44.024;20.456;2022-08-11T16:48:47;8.85;;;0.77;;
66169;SDS011;52971;44.024;20.456;2022-08-11T16:51:13;2.75;;;0.32;;
66169;SDS011;52971;44.024;20.456;2022-08-11T16:53:41;1.65;;;0.60;;
66169;SDS011;52971;44.024;20.456;2022-08-11T16:56:08;2.70;;;0.40;;
66169;SDS011;52971;44.024;20.456;2022-08-11T16:58:38;1.67;;;0.38;;
66169;SDS011;52971;44.024;20.456;2022-08-11T17:01:24;2.17;;;0.52;;
66169;SDS011;52971;44.024;20.456;2022-08-11T17:04:08;3.55;;;0.50;;
66169;SDS011;52971;44.024;20.456;2022-08-11T17:06:58;7.57;;;1.00;;
66169;SDS011;52971;44.024;20.456;2022-08-11T17:09:59;3.30;;;2.03;;
66169;SDS011;52971;44.024;20.456;2022-08-11T17:12:47;2.20;;;0.43;;
66169;SDS011;52971;44.024;20.456;2022-08-11T17:15:37;1.70;;;0.60;;
66169;SDS011;52971;44.024;20.456;2022-08-11T17:18:26;2.28;;;0.90;;
66169;SDS011;52971;44.024;20.456;2022-08-11T17:23:37;4.93;;;0.77;;
66169;SDS011;52971;44.024;20.456;2022-08-11T17:26:28;5.10;;;0.80;;
66169;SDS011;52971;44.024;20.456;2022-08-11T17:29:19;4.43;;;0.60;;
66169;SDS011;52971;44.024;20.456;2022-08-11T17:32:00;1.92;;;0.82;;
66169;SDS011;52971;44.024;20.456;2022-08-11T17:34:46;2.22;;;1.33;;
66169;SDS011;52971;44.024;20.456;2022-08-11T17:37:33;4.68;;;1.10;;
66169;SDS011;52971;44.024;20.456;2022-08-11T17:40:01;3.17;;;1.13;;
66169;SDS011;52971;44.024;20.456;2022-08-11T17:42:30;2.47;;;1.20;;
66169;SDS011;52971;44.024;20.456;2022-08-11T17:45:16;5.90;;;0.90;;
66169;SDS011;52971;44.024;20.456;2022-08-11T17:48:01;5.90;;;1.00;;
66169;SDS011;52971;44.024;20.456;2022-08-11T17:50:47;3.03;;;0.70;;
66169;SDS011;52971;44.024;20.456;2022-08-11T17:53:15;3.35;;;0.60;;
66169;SDS011;52971;44.024;20.456;2022-08-11T17:56:00;4.55;;;0.70;;
66169;SDS011;52971;44.024;20.456;2022-08-11T17:58:45;6.88;;;0.82;;
66169;SDS011;52971;44.024;20.456;2022-08-11T18:01:32;5.30;;;0.80;;
66169;SDS011;52971;44.024;20.456;2022-08-11T18:04:04;2.97;;;0.60;;
66169;SDS011;52971;44.024;20.456;2022-08-11T18:06:33;5.15;;;1.00;;
66169;SDS011;52971;44.024;20.456;2022-08-11T18:09:03;2.80;;;0.63;;
66169;SDS011;52971;44.024;20.456;2022-08-11T18:11:49;5.00;;;2.90;;
66169;SDS011;52971;44.024;20.456;2022-08-11T18:14:35;3.50;;;1.55;;
66169;SDS011;52971;44.024;20.456;2022-08-11T18:17:21;7.22;;;1.52;;
66169;SDS011;52971;44.024;20.456;2022-08-11T18:20:05;2.85;;;0.93;;
66169;SDS011;52971;44.024;20.456;2022-08-11T18:22:50;4.38;;;1.00;;
66169;SDS011;52971;44.024;20.456;2022-08-11T18:25:39;7.07;;;2.13;;
66169;SDS011;52971;44.024;20.456;2022-08-11T18:28:46;3.67;;;1.25;;
66169;SDS011;52971;44.024;20.456;2022-08-11T18:31:34;3.67;;;1.27;;
66169;SDS011;52971;44.024;20.456;2022-08-11T18:34:25;5.88;;;1.30;;
66169;SDS011;52971;44.024;20.456;2022-08-11T18:37:18;1.95;;;0.65;;
66169;SDS011;52971;44.024;20.456;2022-08-11T18:40:07;6.75;;;1.33;;
66169;SDS011;52971;44.024;20.456;2022-08-11T18:42:56;2.75;;;0.90;;
66169;SDS011;52971;44.024;20.456;2022-08-11T18:45:43;3.45;;;0.80;;
66169;SDS011;52971;44.024;20.456;2022-08-11T18:48:30;4.63;;;0.75;;
66169;SDS011;52971;44.024;20.456;2022-08-11T18:51:17;5.03;;;0.80;;
66169;SDS011;52971;44.024;20.456;2022-08-11T18:54:03;5.28;;;1.33;;
66169;SDS011;52971;44.024;20.456;2022-08-11T18:56:51;4.45;;;1.60;;
66169;SDS011;52971;44.024;20.456;2022-08-11T18:59:39;6.30;;;1.67;;
66169;SDS011;52971;44.024;20.456;2022-08-11T19:02:25;4.68;;;1.98;;
66169;SDS011;52971;44.024;20.456;2022-08-11T19:05:10;5.82;;;1.45;;
66169;SDS011;52971;44.024;20.456;2022-08-11T19:07:57;4.28;;;1.85;;
66169;SDS011;52971;44.024;20.456;2022-08-11T19:10:43;7.80;;;2.08;;
66169;SDS011;52971;44.024;20.456;2022-08-11T19:13:32;6.22;;;1.70;;
66169;SDS011;52971;44.024;20.456;2022-08-11T19:16:19;6.47;;;1.73;;
66169;SDS011;52971;44.024;20.456;2022-08-11T19:19:07;9.00;;;1.60;;
66169;SDS011;52971;44.024;20.456;2022-08-11T19:21:52;10.02;;;1.40;;
66169;SDS011;52971;44.024;20.456;2022-08-11T19:24:37;6.63;;;1.17;;
66169;SDS011;52971;44.024;20.456;2022-08-11T19:27:26;9.82;;;1.45;;
66169;SDS011;52971;44.024;20.456;2022-08-11T19:30:12;4.72;;;1.05;;
66169;SDS011;52971;44.024;20.456;2022-08-11T19:32:56;6.05;;;0.93;;
66169;SDS011;52971;44.024;20.456;2022-08-11T19:35:42;2.20;;;0.98;;
66169;SDS011;52971;44.024;20.456;2022-08-11T19:38:28;3.03;;;1.00;;
66169;SDS011;52971;44.024;20.456;2022-08-11T19:41:13;4.45;;;1.08;;